createdAt,value
2019-04-30T00:02:34.616Z,11.30
2019-04-30T00:07:31.990Z,11.30
2019-04-30T00:12:35.985Z,11.30
2019-04-30T00:17:37.394Z,11.30
2019-04-30T00:22:46.547Z,11.30
2019-04-30T00:27:42.950Z,11.30
2019-04-30T00:32:46.895Z,11.30
2019-04-30T00:37:52.003Z,11.20
2019-04-30T00:43:00.159Z,11.20
2019-04-30T00:48:00.501Z,11.20
2019-04-30T00:53:05.847Z,11.20
2019-04-30T00:58:08.986Z,11.20
2019-04-30T01:03:18.295Z,11.10
2019-04-30T01:08:21.205Z,11.10
2019-04-30T01:13:23.733Z,11.10
2019-04-30T01:18:30.599Z,11.20
2019-04-30T01:23:29.657Z,11.20
2019-04-30T01:28:31.697Z,11.20
2019-04-30T01:33:34.684Z,11.20
2019-04-30T01:38:40.025Z,11.20
2019-04-30T01:43:41.032Z,11.10
2019-04-30T01:48:50.543Z,11.20
2019-04-30T01:53:48.492Z,11.20
2019-04-30T01:58:59.509Z,11.20
2019-04-30T02:04:03.648Z,11.10
2019-04-30T02:09:25.253Z,11.10
2019-04-30T02:14:28.741Z,11.10
2019-04-30T02:19:31.231Z,11.10
2019-04-30T02:24:32.929Z,11.10
2019-04-30T02:29:34.453Z,11.10
2019-04-30T02:34:41.169Z,11.10
2019-04-30T02:39:41.705Z,11.10
2019-04-30T02:44:44.943Z,11.10
2019-04-30T02:49:52.934Z,11.10
2019-04-30T02:54:55.016Z,11.10
2019-04-30T03:00:13.458Z,11.10
2019-04-30T03:05:16.650Z,11.10
2019-04-30T03:10:19.789Z,11.10
2019-04-30T03:15:24.495Z,11.10
2019-04-30T03:20:35.736Z,11.10
2019-04-30T03:25:32.259Z,11.10
2019-04-30T03:30:35.011Z,11.00
2019-04-30T03:35:36.580Z,11.10
2019-04-30T03:40:40.451Z,11.00
2019-04-30T03:45:41.180Z,11.00
2019-04-30T03:50:53.241Z,11.00
2019-04-30T03:55:45.671Z,11.00
2019-04-30T04:01:09.917Z,11.00
2019-04-30T04:06:21.255Z,11.00
2019-04-30T04:11:23.718Z,11.00
2019-04-30T04:16:25.014Z,11.10
2019-04-30T04:21:26.324Z,11.10
2019-04-30T04:26:29.822Z,11.20
2019-04-30T04:31:31.426Z,11.10
2019-04-30T04:36:33.173Z,11.20
2019-04-30T04:41:35.618Z,11.20
2019-04-30T04:46:36.905Z,11.10
2019-04-30T04:51:42.025Z,11.10
2019-04-30T04:56:41.509Z,11.10
2019-04-30T05:01:42.799Z,11.10
2019-04-30T05:06:45.028Z,11.10
2019-04-30T05:11:46.409Z,11.10
2019-04-30T05:16:48.842Z,11.10
2019-04-30T05:21:51.764Z,11.10
2019-04-30T05:26:56.400Z,11.10
2019-04-30T05:31:58.537Z,11.10
2019-04-30T05:37:00.998Z,11.10
2019-04-30T05:42:04.687Z,11.10
2019-04-30T05:47:06.001Z,11.10
2019-04-30T05:52:09.448Z,11.10
2019-04-30T05:57:11.263Z,11.10
2019-04-30T06:02:12.823Z,11.10
2019-04-30T06:07:14.337Z,11.10
2019-04-30T06:12:28.452Z,11.10
2019-04-30T06:17:32.742Z,11.10
2019-04-30T06:22:34.238Z,11.00
2019-04-30T06:27:38.701Z,11.10
2019-04-30T06:32:41.021Z,11.10
2019-04-30T06:37:42.340Z,11.20
2019-04-30T06:42:43.977Z,11.30
2019-04-30T06:47:46.294Z,11.40
2019-04-30T06:52:56.221Z,11.50
2019-04-30T06:57:51.101Z,11.70
2019-04-30T07:02:53.101Z,11.90
2019-04-30T07:08:09.096Z,12.00
2019-04-30T07:13:08.789Z,12.10
2019-04-30T07:18:10.483Z,12.10
2019-04-30T07:23:11.778Z,12.10
2019-04-30T07:28:13.584Z,12.20
2019-04-30T07:33:14.933Z,12.20
2019-04-30T07:38:16.255Z,12.40
2019-04-30T07:43:18.970Z,12.50
2019-04-30T07:48:25.958Z,12.70
2019-04-30T07:53:25.220Z,12.60
2019-04-30T07:58:29.438Z,12.60
2019-04-30T08:03:49.992Z,12.60
2019-04-30T08:08:57.198Z,12.70
2019-04-30T08:13:55.118Z,12.70
2019-04-30T08:18:59.209Z,12.80
2019-04-30T08:24:01.103Z,12.90
2019-04-30T08:29:03.196Z,13.00
2019-04-30T08:34:10.649Z,13.00
2019-04-30T08:39:10.874Z,13.20
2019-04-30T08:44:20.672Z,13.10
2019-04-30T08:49:20.368Z,13.10
2019-04-30T08:54:22.058Z,13.00
2019-04-30T08:59:23.505Z,13.00
2019-04-30T09:04:29.102Z,13.00
2019-04-30T09:09:35.312Z,13.00
2019-04-30T09:14:40.427Z,13.20
2019-04-30T09:19:49.029Z,13.30
2019-04-30T09:24:51.114Z,13.30
2019-04-30T09:29:54.352Z,13.30
2019-04-30T09:34:55.643Z,13.40
2019-04-30T09:39:56.955Z,13.40
2019-04-30T09:44:59.649Z,13.40
2019-04-30T09:50:01.563Z,13.40
2019-04-30T09:55:04.457Z,13.30
2019-04-30T10:00:09.417Z,13.20
2019-04-30T10:05:13.709Z,13.10
2019-04-30T10:10:20.662Z,13.10
2019-04-30T10:15:36.437Z,13.30
2019-04-30T10:20:42.917Z,13.40
2019-04-30T10:25:48.481Z,13.50
2019-04-30T10:30:50.318Z,13.40
2019-04-30T10:35:53.538Z,13.50
2019-04-30T10:40:54.942Z,13.80
2019-04-30T10:45:58.484Z,14.20
2019-04-30T10:50:59.683Z,14.40
2019-04-30T10:56:01.231Z,14.50
2019-04-30T11:01:03.474Z,14.50
2019-04-30T11:06:04.947Z,14.40
2019-04-30T11:11:07.413Z,14.30
2019-04-30T11:16:14.018Z,14.30
2019-04-30T11:21:14.467Z,14.30
2019-04-30T11:26:16.755Z,14.20
2019-04-30T11:31:26.475Z,14.20
2019-04-30T11:36:30.506Z,14.30
2019-04-30T11:41:35.130Z,14.20
2019-04-30T11:47:06.741Z,14.20
2019-04-30T11:52:11.133Z,14.00
2019-04-30T11:57:13.487Z,14.00
2019-04-30T12:02:19.103Z,14.10
2019-04-30T12:07:32.111Z,14.10
2019-04-30T12:12:33.583Z,14.10
2019-04-30T12:17:53.494Z,13.90
2019-04-30T12:22:56.743Z,13.90
2019-04-30T12:27:59.603Z,13.80
2019-04-30T12:33:01.247Z,13.80
2019-04-30T12:38:02.781Z,13.80
2019-04-30T12:43:06.501Z,13.90
2019-04-30T12:48:09.852Z,13.90
2019-04-30T12:53:22.080Z,13.90
2019-04-30T12:58:23.499Z,13.90
2019-04-30T13:03:25.077Z,14.00
2019-04-30T13:08:30.420Z,14.00
2019-04-30T13:13:33.244Z,14.20
2019-04-30T13:18:37.051Z,14.30
2019-04-30T13:23:38.560Z,14.30
2019-04-30T13:28:59.804Z,14.30
2019-04-30T13:34:19.910Z,14.30
2019-04-30T13:39:23.393Z,14.30
2019-04-30T13:44:29.423Z,14.20
2019-04-30T13:49:51.247Z,14.40
2019-04-30T13:54:54.713Z,14.40
2019-04-30T13:59:58.524Z,14.50
2019-04-30T14:05:04.699Z,14.60
2019-04-30T14:10:09.870Z,14.70
2019-04-30T14:15:11.889Z,14.80
2019-04-30T14:20:15.465Z,14.80
2019-04-30T14:25:17.077Z,14.90
2019-04-30T14:30:19.214Z,14.90
2019-04-30T14:35:21.116Z,14.90
2019-04-30T14:40:24.427Z,15.00
2019-04-30T14:45:35.175Z,14.90
2019-04-30T14:50:39.442Z,14.70
2019-04-30T14:55:49.535Z,14.60
2019-04-30T15:00:53.949Z,14.60
2019-04-30T15:05:55.217Z,14.60
2019-04-30T15:10:57.109Z,14.50
2019-04-30T15:15:58.381Z,14.40
2019-04-30T15:20:59.977Z,14.40
2019-04-30T15:26:05.590Z,14.30
2019-04-30T15:31:09.906Z,14.20
2019-04-30T15:36:11.239Z,14.00
2019-04-30T15:41:12.673Z,13.90
2019-04-30T15:46:16.128Z,13.80
2019-04-30T15:51:17.630Z,13.80
2019-04-30T15:56:20.273Z,13.70
2019-04-30T16:01:21.834Z,13.60
2019-04-30T16:06:23.425Z,13.50
2019-04-30T16:11:29.713Z,13.50
2019-04-30T16:16:32.981Z,13.50
2019-04-30T16:21:34.348Z,13.60
2019-04-30T16:26:47.306Z,13.50
2019-04-30T16:31:41.277Z,13.50
2019-04-30T16:36:43.383Z,13.50
2019-04-30T16:41:44.842Z,13.50
2019-04-30T16:46:46.116Z,13.50
2019-04-30T16:51:47.710Z,13.50
2019-04-30T16:57:02.692Z,13.50
2019-04-30T17:01:57.654Z,13.50
2019-04-30T17:06:58.794Z,13.40
2019-04-30T17:12:14.030Z,13.30
2019-04-30T17:17:15.304Z,13.30
2019-04-30T17:22:16.605Z,13.30
2019-04-30T17:27:21.951Z,13.30
2019-04-30T17:37:43.350Z,13.20
2019-04-30T17:42:45.242Z,13.10
2019-04-30T17:47:46.743Z,13.00
2019-04-30T17:52:48.935Z,13.00
2019-04-30T17:57:50.582Z,12.90
2019-04-30T18:02:52.898Z,12.90
2019-04-30T18:07:54.230Z,12.90
2019-04-30T18:12:57.991Z,12.90
2019-04-30T18:18:01.318Z,12.90
2019-04-30T18:23:24.189Z,12.80
2019-04-30T18:28:26.166Z,12.80
2019-04-30T18:33:29.192Z,12.70
2019-04-30T18:38:31.506Z,12.60
2019-04-30T18:43:32.829Z,12.60
2019-04-30T18:48:34.454Z,12.50
2019-04-30T18:53:39.668Z,12.50
2019-04-30T18:58:43.213Z,12.40
2019-04-30T19:03:46.419Z,12.30
2019-04-30T19:08:55.533Z,12.30
2019-04-30T19:14:19.539Z,12.30
2019-04-30T19:19:23.336Z,12.30
2019-04-30T19:24:25.081Z,12.20
2019-04-30T19:29:26.648Z,12.20
2019-04-30T19:34:31.038Z,12.20
2019-04-30T19:39:32.513Z,12.20
2019-04-30T19:44:34.073Z,12.20
2019-04-30T19:49:36.624Z,12.20
2019-04-30T19:54:40.088Z,12.20
2019-04-30T19:59:41.821Z,12.20
2019-04-30T20:04:43.134Z,12.10
2019-04-30T20:09:44.412Z,12.10
2019-04-30T20:14:46.760Z,12.10
2019-04-30T20:19:48.921Z,12.00
2019-04-30T20:24:50.578Z,12.00
2019-04-30T20:29:51.905Z,12.00
2019-04-30T20:34:53.449Z,11.90
2019-04-30T20:40:00.960Z,11.90
2019-04-30T20:45:12.410Z,11.90
2019-04-30T20:50:13.895Z,11.90
2019-04-30T20:55:15.360Z,11.90
2019-04-30T21:00:17.141Z,11.80
2019-04-30T21:05:18.505Z,11.80
2019-04-30T21:10:20.870Z,11.70
2019-04-30T21:15:23.594Z,11.70
2019-04-30T21:20:24.935Z,11.60
2019-04-30T21:25:26.313Z,11.60
2019-04-30T21:30:27.731Z,11.50
2019-04-30T21:35:34.603Z,11.50
2019-04-30T21:40:36.748Z,11.40
2019-04-30T21:45:40.141Z,11.40
2019-04-30T21:50:41.422Z,11.30
2019-04-30T21:55:42.802Z,11.20
2019-04-30T22:01:04.902Z,11.10
2019-04-30T22:06:08.490Z,11.00
2019-04-30T22:11:10.159Z,10.90
2019-04-30T22:16:13.035Z,10.80
2019-04-30T22:21:14.843Z,10.70
2019-04-30T22:26:16.123Z,10.70
2019-04-30T22:31:19.566Z,10.70
2019-04-30T22:36:26.397Z,10.70
2019-04-30T22:41:29.804Z,10.70
2019-04-30T22:46:31.502Z,10.70
2019-04-30T22:51:32.894Z,10.70
2019-04-30T22:56:34.172Z,10.70
2019-04-30T23:01:43.282Z,10.70
2019-04-30T23:06:44.662Z,10.70
2019-04-30T23:11:45.964Z,10.60
2019-04-30T23:16:48.670Z,10.60
2019-04-30T23:21:49.959Z,10.60
2019-04-30T23:26:51.641Z,10.60
2019-04-30T23:31:53.003Z,10.50
2019-04-30T23:36:55.878Z,10.50
2019-04-30T23:41:57.150Z,10.40
2019-04-30T23:47:02.090Z,10.40
2019-04-30T23:52:03.396Z,10.20
2019-04-30T23:57:04.952Z,10.10
